Nissho Maru No.18 — JL6369 — position and weather

sailwx.info

Track history (hours):
 
Tides and Currents Weather Stations Pressure Air Temp Water Temp Dewpoint Dewpoint Depression Visibility Wind Speed Wind Dir Waves Ship Positions

Nissho Maru No.18

Last reported at 2015-Apr-18 08:31 UTC. Time now 2015-Apr-18 23:31 UTC.
Position N 34°38' E 134°60'.

Length 65 m; draft 4 m.

Type: Tanker. MMSI: 431500465.

Date/timePositionNaut miles runAvg speedWind from/ knotsBaromVisibWave heightAir tempDewpointWater temp
2015-Apr-18 08:31N 34°38' E 134°60'1010.2
2015-Apr-18 07:33N 34°28' E 135°03'1212.1
2015-Apr-18 06:32N 34°16' E 134°60'11 3.5
2015-Apr-18 03:17N 34°07' E 135°08'0 0.0
2015-Apr-18 01:05N 34°07' E 135°08'0 0.0
2015-Apr-18 00:26N 34°07' E 135°08'0 0.5
2015-Apr-17 23:29N 34°07' E 135°08'4 0.9
2015-Apr-17 18:33N 34°10' E 135°04'1212.0
2015-Apr-17 17:33N 34°22' E 134°60'1312.7
2015-Apr-17 16:33N 34°34' E 135°03'1512.6
2015-Apr-17 15:23N 34°32' E 134°45'  
2015-Apr-08 23:32N 34°38' E 134°60'9 9.4
2015-Apr-08 22:33N 34°29' E 135°03'1311.6
2015-Apr-08 21:27N 34°16' E 134°59'1011.1
2015-Apr-08 20:33N 34°06' E 135°01'  
Track history (hours):
 
Tides and Currents Weather Stations Pressure Air Temp Water Temp Dewpoint Dewpoint Depression Visibility Wind Speed Wind Dir Waves Ship Positions

Nissho Maru No.18

Last reported at 2015-Apr-18 08:31 UTC. Time now 2015-Apr-18 23:31 UTC.
Position N 34°38' E 134°60'.

Length 65 m; draft 4 m.

Type: Tanker. MMSI: 431500465.

Date/timePositionNaut miles runAvg speedWind from/ knotsBaromVisibWave heightAir tempDewpointWater temp
2015-Apr-18 08:31N 34°38' E 134°60'1010.2
2015-Apr-18 07:33N 34°28' E 135°03'1212.1
2015-Apr-18 06:32N 34°16' E 134°60'11 3.5
2015-Apr-18 03:17N 34°07' E 135°08'0 0.0
2015-Apr-18 01:05N 34°07' E 135°08'0 0.0
2015-Apr-18 00:26N 34°07' E 135°08'0 0.5
2015-Apr-17 23:29N 34°07' E 135°08'4 0.9
2015-Apr-17 18:33N 34°10' E 135°04'1212.0
2015-Apr-17 17:33N 34°22' E 134°60'1312.7
2015-Apr-17 16:33N 34°34' E 135°03'1512.6
2015-Apr-17 15:23N 34°32' E 134°45'  
2015-Apr-08 23:32N 34°38' E 134°60'9 9.4
2015-Apr-08 22:33N 34°29' E 135°03'1311.6
2015-Apr-08 21:27N 34°16' E 134°59'1011.1
2015-Apr-08 20:33N 34°06' E 135°01'  

Dump ship's entire track history